sensor_id;sensor_type;location;lat;lon;timestamp;P1;durP1;ratioP1;P2;durP2;ratioP2
60352;SDS011;46196;52.970;6.954;2023-02-23T00:01:23;69.25;;;28.38;;
60352;SDS011;46196;52.970;6.954;2023-02-23T00:03:50;69.32;;;30.65;;
60352;SDS011;46196;52.970;6.954;2023-02-23T00:06:19;38.17;;;17.10;;
60352;SDS011;46196;52.970;6.954;2023-02-23T00:08:45;69.25;;;29.73;;
60352;SDS011;46196;52.970;6.954;2023-02-23T00:11:16;70.25;;;27.27;;
60352;SDS011;46196;52.970;6.954;2023-02-23T00:13:43;75.85;;;31.67;;
60352;SDS011;46196;52.970;6.954;2023-02-23T00:16:18;74.78;;;30.85;;
60352;SDS011;46196;52.970;6.954;2023-02-23T00:18:51;80.15;;;31.52;;
60352;SDS011;46196;52.970;6.954;2023-02-23T00:21:28;72.88;;;30.35;;
60352;SDS011;46196;52.970;6.954;2023-02-23T00:23:56;69.43;;;28.17;;
60352;SDS011;46196;52.970;6.954;2023-02-23T00:26:23;70.65;;;28.15;;
60352;SDS011;46196;52.970;6.954;2023-02-23T00:28:50;65.18;;;27.60;;
60352;SDS011;46196;52.970;6.954;2023-02-23T00:31:17;84.07;;;29.45;;
60352;SDS011;46196;52.970;6.954;2023-02-23T00:33:47;72.95;;;29.15;;
60352;SDS011;46196;52.970;6.954;2023-02-23T00:36:15;70.95;;;29.40;;
60352;SDS011;46196;52.970;6.954;2023-02-23T00:38:42;75.40;;;29.02;;
60352;SDS011;46196;52.970;6.954;2023-02-23T00:41:14;72.43;;;28.73;;
60352;SDS011;46196;52.970;6.954;2023-02-23T00:43:52;65.20;;;27.85;;
60352;SDS011;46196;52.970;6.954;2023-02-23T00:46:19;72.05;;;27.10;;
60352;SDS011;46196;52.970;6.954;2023-02-23T00:48:46;69.35;;;27.90;;
60352;SDS011;46196;52.970;6.954;2023-02-23T00:51:13;70.22;;;29.08;;
60352;SDS011;46196;52.970;6.954;2023-02-23T00:53:40;69.47;;;28.67;;
60352;SDS011;46196;52.970;6.954;2023-02-23T00:56:07;65.40;;;27.55;;
60352;SDS011;46196;52.970;6.954;2023-02-23T00:58:33;68.10;;;27.80;;
60352;SDS011;46196;52.970;6.954;2023-02-23T01:00:59;63.20;;;27.05;;
60352;SDS011;46196;52.970;6.954;2023-02-23T01:03:26;76.25;;;30.17;;
60352;SDS011;46196;52.970;6.954;2023-02-23T01:05:52;74.60;;;27.85;;
60352;SDS011;46196;52.970;6.954;2023-02-23T01:08:19;78.68;;;28.55;;
60352;SDS011;46196;52.970;6.954;2023-02-23T01:10:49;67.95;;;26.85;;
60352;SDS011;46196;52.970;6.954;2023-02-23T01:13:18;66.07;;;28.45;;
60352;SDS011;46196;52.970;6.954;2023-02-23T01:15:45;71.50;;;29.13;;
60352;SDS011;46196;52.970;6.954;2023-02-23T01:18:12;69.57;;;28.73;;
60352;SDS011;46196;52.970;6.954;2023-02-23T01:20:38;73.57;;;29.20;;
60352;SDS011;46196;52.970;6.954;2023-02-23T01:23:08;73.03;;;28.45;;
60352;SDS011;46196;52.970;6.954;2023-02-23T01:25:36;67.18;;;27.95;;
60352;SDS011;46196;52.970;6.954;2023-02-23T01:28:03;64.57;;;26.75;;
60352;SDS011;46196;52.970;6.954;2023-02-23T01:30:29;70.80;;;27.58;;
60352;SDS011;46196;52.970;6.954;2023-02-23T01:32:55;64.18;;;26.38;;
60352;SDS011;46196;52.970;6.954;2023-02-23T01:35:22;67.40;;;28.38;;
60352;SDS011;46196;52.970;6.954;2023-02-23T01:37:48;78.50;;;30.02;;
60352;SDS011;46196;52.970;6.954;2023-02-23T01:40:15;68.70;;;28.00;;
60352;SDS011;46196;52.970;6.954;2023-02-23T01:42:53;74.80;;;29.80;;
60352;SDS011;46196;52.970;6.954;2023-02-23T01:45:25;70.30;;;29.20;;
60352;SDS011;46196;52.970;6.954;2023-02-23T01:47:53;72.22;;;29.95;;
60352;SDS011;46196;52.970;6.954;2023-02-23T01:50:20;67.03;;;29.02;;
60352;SDS011;46196;52.970;6.954;2023-02-23T01:52:48;70.53;;;29.27;;
60352;SDS011;46196;52.970;6.954;2023-02-23T01:55:15;73.38;;;30.77;;
60352;SDS011;46196;52.970;6.954;2023-02-23T01:57:47;78.30;;;30.98;;
60352;SDS011;46196;52.970;6.954;2023-02-23T02:00:14;70.03;;;29.60;;
60352;SDS011;46196;52.970;6.954;2023-02-23T02:02:44;81.35;;;32.65;;
60352;SDS011;46196;52.970;6.954;2023-02-23T02:05:13;83.68;;;31.02;;
60352;SDS011;46196;52.970;6.954;2023-02-23T02:07:41;80.32;;;31.15;;
60352;SDS011;46196;52.970;6.954;2023-02-23T02:10:10;82.13;;;32.28;;
60352;SDS011;46196;52.970;6.954;2023-02-23T02:12:37;77.78;;;28.75;;
60352;SDS011;46196;52.970;6.954;2023-02-23T02:15:06;74.03;;;30.08;;
60352;SDS011;46196;52.970;6.954;2023-02-23T02:44:13;86.15;;;32.55;;
60352;SDS011;46196;52.970;6.954;2023-02-23T02:46:42;92.00;;;34.35;;
60352;SDS011;46196;52.970;6.954;2023-02-23T02:49:19;88.45;;;34.95;;
60352;SDS011;46196;52.970;6.954;2023-02-23T02:51:51;85.25;;;33.85;;
60352;SDS011;46196;52.970;6.954;2023-02-23T02:57:02;88.95;;;32.30;;
60352;SDS011;46196;52.970;6.954;2023-02-23T02:59:29;89.65;;;34.08;;
60352;SDS011;46196;52.970;6.954;2023-02-23T03:02:16;87.30;;;30.98;;
60352;SDS011;46196;52.970;6.954;2023-02-23T03:05:06;95.70;;;34.58;;
60352;SDS011;46196;52.970;6.954;2023-02-23T03:17:11;96.63;;;35.38;;
60352;SDS011;46196;52.970;6.954;2023-02-23T03:20:10;91.50;;;35.35;;
60352;SDS011;46196;52.970;6.954;2023-02-23T03:28:32;86.20;;;31.90;;
60352;SDS011;46196;52.970;6.954;2023-02-23T03:31:24;96.90;;;33.83;;
60352;SDS011;46196;52.970;6.954;2023-02-23T03:34:16;80.38;;;31.38;;
60352;SDS011;46196;52.970;6.954;2023-02-23T03:37:12;87.70;;;32.38;;
60352;SDS011;46196;52.970;6.954;2023-02-23T03:40:10;78.63;;;31.65;;
60352;SDS011;46196;52.970;6.954;2023-02-23T03:42:57;79.00;;;31.55;;
60352;SDS011;46196;52.970;6.954;2023-02-23T03:45:43;88.35;;;33.70;;
60352;SDS011;46196;52.970;6.954;2023-02-23T03:48:30;94.50;;;34.75;;
60352;SDS011;46196;52.970;6.954;2023-02-23T03:51:15;98.90;;;35.33;;
60352;SDS011;46196;52.970;6.954;2023-02-23T03:54:14;98.85;;;34.72;;
60352;SDS011;46196;52.970;6.954;2023-02-23T03:57:00;86.60;;;33.55;;
60352;SDS011;46196;52.970;6.954;2023-02-23T03:59:48;89.25;;;32.45;;
60352;SDS011;46196;52.970;6.954;2023-02-23T04:02:34;91.95;;;34.13;;
60352;SDS011;46196;52.970;6.954;2023-02-23T04:05:20;97.93;;;34.40;;
60352;SDS011;46196;52.970;6.954;2023-02-23T04:08:07;89.68;;;34.72;;
60352;SDS011;46196;52.970;6.954;2023-02-23T04:10:54;87.63;;;34.03;;
60352;SDS011;46196;52.970;6.954;2023-02-23T04:13:41;96.18;;;34.92;;
60352;SDS011;46196;52.970;6.954;2023-02-23T04:16:09;92.05;;;35.47;;
60352;SDS011;46196;52.970;6.954;2023-02-23T04:18:37;94.82;;;32.13;;
60352;SDS011;46196;52.970;6.954;2023-02-23T04:21:04;91.75;;;32.45;;
60352;SDS011;46196;52.970;6.954;2023-02-23T04:23:30;95.53;;;34.53;;
60352;SDS011;46196;52.970;6.954;2023-02-23T04:25:56;97.85;;;34.33;;
60352;SDS011;46196;52.970;6.954;2023-02-23T04:28:23;98.55;;;36.47;;
60352;SDS011;46196;52.970;6.954;2023-02-23T04:30:49;94.85;;;34.78;;
60352;SDS011;46196;52.970;6.954;2023-02-23T04:33:19;91.88;;;33.17;;
60352;SDS011;46196;52.970;6.954;2023-02-23T04:35:50;98.38;;;34.72;;
60352;SDS011;46196;52.970;6.954;2023-02-23T04:38:17;92.03;;;34.05;;
60352;SDS011;46196;52.970;6.954;2023-02-23T04:40:43;96.32;;;33.70;;
60352;SDS011;46196;52.970;6.954;2023-02-23T04:43:12;92.72;;;34.15;;
60352;SDS011;46196;52.970;6.954;2023-02-23T04:45:38;92.05;;;33.70;;
60352;SDS011;46196;52.970;6.954;2023-02-23T04:48:05;98.20;;;33.55;;
60352;SDS011;46196;52.970;6.954;2023-02-23T04:50:31;87.30;;;32.63;;
60352;SDS011;46196;52.970;6.954;2023-02-23T04:52:57;81.65;;;32.25;;
60352;SDS011;46196;52.970;6.954;2023-02-23T04:55:23;88.70;;;34.47;;
60352;SDS011;46196;52.970;6.954;2023-02-23T04:57:50;96.20;;;34.33;;
60352;SDS011;46196;52.970;6.954;2023-02-23T05:00:16;91.32;;;32.88;;
60352;SDS011;46196;52.970;6.954;2023-02-23T05:02:43;91.60;;;34.42;;
60352;SDS011;46196;52.970;6.954;2023-02-23T05:05:10;93.53;;;32.20;;
60352;SDS011;46196;52.970;6.954;2023-02-23T05:07:37;86.90;;;31.00;;
60352;SDS011;46196;52.970;6.954;2023-02-23T05:10:04;95.32;;;34.17;;
60352;SDS011;46196;52.970;6.954;2023-02-23T05:12:30;96.43;;;33.58;;
60352;SDS011;46196;52.970;6.954;2023-02-23T05:14:57;97.65;;;34.38;;
60352;SDS011;46196;52.970;6.954;2023-02-23T05:17:23;90.50;;;32.38;;
60352;SDS011;46196;52.970;6.954;2023-02-23T05:19:49;88.78;;;33.50;;
60352;SDS011;46196;52.970;6.954;2023-02-23T05:22:16;95.60;;;34.28;;
60352;SDS011;46196;52.970;6.954;2023-02-23T05:24:42;101.13;;;34.95;;
60352;SDS011;46196;52.970;6.954;2023-02-23T05:27:08;95.40;;;32.97;;
60352;SDS011;46196;52.970;6.954;2023-02-23T05:29:35;95.70;;;32.85;;
60352;SDS011;46196;52.970;6.954;2023-02-23T05:32:01;77.30;;;30.63;;
60352;SDS011;46196;52.970;6.954;2023-02-23T05:34:27;84.03;;;32.10;;
60352;SDS011;46196;52.970;6.954;2023-02-23T05:36:53;89.85;;;32.75;;
60352;SDS011;46196;52.970;6.954;2023-02-23T05:39:20;91.93;;;33.15;;
60352;SDS011;46196;52.970;6.954;2023-02-23T05:41:46;90.28;;;32.03;;
60352;SDS011;46196;52.970;6.954;2023-02-23T05:44:12;98.72;;;36.88;;
60352;SDS011;46196;52.970;6.954;2023-02-23T05:46:39;96.25;;;33.83;;
60352;SDS011;46196;52.970;6.954;2023-02-23T05:49:05;93.70;;;34.00;;
60352;SDS011;46196;52.970;6.954;2023-02-23T05:51:32;95.85;;;34.40;;
60352;SDS011;46196;52.970;6.954;2023-02-23T05:53:58;99.18;;;33.25;;
60352;SDS011;46196;52.970;6.954;2023-02-23T05:56:24;91.70;;;31.92;;
60352;SDS011;46196;52.970;6.954;2023-02-23T05:58:52;100.90;;;33.92;;
60352;SDS011;46196;52.970;6.954;2023-02-23T06:01:19;98.30;;;34.65;;
60352;SDS011;46196;52.970;6.954;2023-02-23T06:03:46;99.50;;;35.28;;
60352;SDS011;46196;52.970;6.954;2023-02-23T06:06:12;98.38;;;33.70;;
60352;SDS011;46196;52.970;6.954;2023-02-23T06:08:39;92.13;;;33.15;;
60352;SDS011;46196;52.970;6.954;2023-02-23T06:11:05;102.20;;;33.55;;
60352;SDS011;46196;52.970;6.954;2023-02-23T06:13:31;95.07;;;34.17;;
60352;SDS011;46196;52.970;6.954;2023-02-23T06:15:57;93.93;;;34.33;;
60352;SDS011;46196;52.970;6.954;2023-02-23T06:18:24;95.47;;;35.00;;
60352;SDS011;46196;52.970;6.954;2023-02-23T06:20:50;100.80;;;36.17;;
60352;SDS011;46196;52.970;6.954;2023-02-23T06:23:16;84.50;;;32.40;;
60352;SDS011;46196;52.970;6.954;2023-02-23T06:25:43;98.82;;;33.42;;
60352;SDS011;46196;52.970;6.954;2023-02-23T06:28:10;101.75;;;33.20;;
60352;SDS011;46196;52.970;6.954;2023-02-23T06:30:36;90.07;;;32.13;;
60352;SDS011;46196;52.970;6.954;2023-02-23T06:33:03;95.05;;;31.90;;
60352;SDS011;46196;52.970;6.954;2023-02-23T06:35:29;99.00;;;30.95;;
60352;SDS011;46196;52.970;6.954;2023-02-23T06:37:56;100.25;;;31.75;;
60352;SDS011;46196;52.970;6.954;2023-02-23T06:40:22;88.93;;;31.25;;
60352;SDS011;46196;52.970;6.954;2023-02-23T06:42:48;99.03;;;32.38;;
60352;SDS011;46196;52.970;6.954;2023-02-23T06:45:15;94.18;;;31.80;;
60352;SDS011;46196;52.970;6.954;2023-02-23T06:47:42;89.57;;;29.38;;
60352;SDS011;46196;52.970;6.954;2023-02-23T06:50:09;90.47;;;30.05;;
60352;SDS011;46196;52.970;6.954;2023-02-23T06:52:35;87.25;;;28.88;;
60352;SDS011;46196;52.970;6.954;2023-02-23T06:55:01;96.70;;;32.85;;
60352;SDS011;46196;52.970;6.954;2023-02-23T06:57:27;92.55;;;31.88;;
60352;SDS011;46196;52.970;6.954;2023-02-23T06:59:53;89.28;;;29.88;;
60352;SDS011;46196;52.970;6.954;2023-02-23T07:02:20;89.90;;;29.85;;
60352;SDS011;46196;52.970;6.954;2023-02-23T07:04:46;85.97;;;29.55;;
60352;SDS011;46196;52.970;6.954;2023-02-23T07:07:12;90.30;;;30.00;;
60352;SDS011;46196;52.970;6.954;2023-02-23T07:09:39;86.68;;;28.50;;
60352;SDS011;46196;52.970;6.954;2023-02-23T07:12:07;85.18;;;28.20;;
60352;SDS011;46196;52.970;6.954;2023-02-23T07:14:33;81.05;;;27.67;;
60352;SDS011;46196;52.970;6.954;2023-02-23T07:16:59;85.20;;;26.95;;
60352;SDS011;46196;52.970;6.954;2023-02-23T07:19:25;86.30;;;28.55;;
60352;SDS011;46196;52.970;6.954;2023-02-23T07:21:51;71.35;;;25.50;;
60352;SDS011;46196;52.970;6.954;2023-02-23T07:24:18;71.47;;;26.00;;
60352;SDS011;46196;52.970;6.954;2023-02-23T07:26:44;73.10;;;24.48;;
60352;SDS011;46196;52.970;6.954;2023-02-23T07:29:11;73.85;;;23.73;;
60352;SDS011;46196;52.970;6.954;2023-02-23T07:31:37;73.00;;;23.35;;
60352;SDS011;46196;52.970;6.954;2023-02-23T07:34:03;76.13;;;22.95;;
60352;SDS011;46196;52.970;6.954;2023-02-23T07:36:29;77.22;;;26.00;;
60352;SDS011;46196;52.970;6.954;2023-02-23T07:38:55;68.80;;;23.83;;
60352;SDS011;46196;52.970;6.954;2023-02-23T07:41:22;69.07;;;24.13;;
60352;SDS011;46196;52.970;6.954;2023-02-23T07:43:48;70.65;;;23.88;;
60352;SDS011;46196;52.970;6.954;2023-02-23T07:46:14;63.28;;;24.20;;
60352;SDS011;46196;52.970;6.954;2023-02-23T07:48:43;56.97;;;23.13;;
60352;SDS011;46196;52.970;6.954;2023-02-23T07:51:10;60.40;;;20.83;;
60352;SDS011;46196;52.970;6.954;2023-02-23T07:53:37;62.80;;;21.63;;
60352;SDS011;46196;52.970;6.954;2023-02-23T07:56:03;56.63;;;20.95;;
60352;SDS011;46196;52.970;6.954;2023-02-23T07:58:29;57.83;;;20.00;;
60352;SDS011;46196;52.970;6.954;2023-02-23T08:00:55;55.97;;;20.40;;
60352;SDS011;46196;52.970;6.954;2023-02-23T08:03:22;54.53;;;20.15;;
60352;SDS011;46196;52.970;6.954;2023-02-23T08:05:48;55.75;;;19.67;;
60352;SDS011;46196;52.970;6.954;2023-02-23T08:08:14;51.78;;;20.95;;
60352;SDS011;46196;52.970;6.954;2023-02-23T08:10:40;52.92;;;17.77;;
60352;SDS011;46196;52.970;6.954;2023-02-23T08:13:06;49.15;;;18.95;;
60352;SDS011;46196;52.970;6.954;2023-02-23T08:15:32;56.53;;;20.17;;
60352;SDS011;46196;52.970;6.954;2023-02-23T08:17:58;57.67;;;19.90;;
60352;SDS011;46196;52.970;6.954;2023-02-23T08:20:25;56.80;;;20.10;;
60352;SDS011;46196;52.970;6.954;2023-02-23T08:22:55;54.70;;;18.65;;
60352;SDS011;46196;52.970;6.954;2023-02-23T08:27:47;50.72;;;19.75;;
60352;SDS011;46196;52.970;6.954;2023-02-23T08:32:44;49.20;;;18.83;;
60352;SDS011;46196;52.970;6.954;2023-02-23T08:35:10;46.40;;;18.02;;
60352;SDS011;46196;52.970;6.954;2023-02-23T08:37:36;46.42;;;18.27;;
60352;SDS011;46196;52.970;6.954;2023-02-23T08:40:03;41.00;;;16.42;;
60352;SDS011;46196;52.970;6.954;2023-02-23T08:42:29;50.00;;;16.38;;
60352;SDS011;46196;52.970;6.954;2023-02-23T08:44:55;41.17;;;16.42;;
60352;SDS011;46196;52.970;6.954;2023-02-23T08:47:21;42.33;;;16.83;;
60352;SDS011;46196;52.970;6.954;2023-02-23T08:49:51;43.83;;;16.83;;
60352;SDS011;46196;52.970;6.954;2023-02-23T08:52:20;41.53;;;18.30;;
60352;SDS011;46196;52.970;6.954;2023-02-23T08:54:47;51.78;;;18.08;;
60352;SDS011;46196;52.970;6.954;2023-02-23T08:57:13;49.22;;;17.88;;
60352;SDS011;46196;52.970;6.954;2023-02-23T08:59:39;36.63;;;15.27;;
60352;SDS011;46196;52.970;6.954;2023-02-23T09:02:06;39.65;;;16.38;;
60352;SDS011;46196;52.970;6.954;2023-02-23T09:04:33;48.17;;;17.23;;
60352;SDS011;46196;52.970;6.954;2023-02-23T09:07:00;41.45;;;17.05;;
60352;SDS011;46196;52.970;6.954;2023-02-23T09:09:26;45.08;;;17.17;;
60352;SDS011;46196;52.970;6.954;2023-02-23T09:11:52;41.55;;;16.50;;
60352;SDS011;46196;52.970;6.954;2023-02-23T09:14:19;43.88;;;16.85;;
60352;SDS011;46196;52.970;6.954;2023-02-23T09:16:45;40.80;;;16.60;;
60352;SDS011;46196;52.970;6.954;2023-02-23T09:19:11;43.78;;;17.38;;
60352;SDS011;46196;52.970;6.954;2023-02-23T09:21:38;44.78;;;18.02;;
60352;SDS011;46196;52.970;6.954;2023-02-23T09:24:04;39.95;;;16.33;;
60352;SDS011;46196;52.970;6.954;2023-02-23T09:26:30;39.72;;;15.98;;
60352;SDS011;46196;52.970;6.954;2023-02-23T09:28:58;33.20;;;13.68;;
60352;SDS011;46196;52.970;6.954;2023-02-23T09:31:24;40.25;;;15.70;;
60352;SDS011;46196;52.970;6.954;2023-02-23T09:33:51;39.05;;;15.00;;
60352;SDS011;46196;52.970;6.954;2023-02-23T09:36:18;38.47;;;15.68;;
60352;SDS011;46196;52.970;6.954;2023-02-23T09:38:45;38.67;;;15.95;;
60352;SDS011;46196;52.970;6.954;2023-02-23T09:43:58;40.38;;;15.85;;
60352;SDS011;46196;52.970;6.954;2023-02-23T09:49:04;38.72;;;15.02;;
60352;SDS011;46196;52.970;6.954;2023-02-23T09:51:35;44.05;;;15.60;;
60352;SDS011;46196;52.970;6.954;2023-02-23T09:56:33;39.53;;;16.02;;
60352;SDS011;46196;52.970;6.954;2023-02-23T09:59:01;40.53;;;14.82;;
60352;SDS011;46196;52.970;6.954;2023-02-23T10:04:19;45.75;;;17.02;;
60352;SDS011;46196;52.970;6.954;2023-02-23T10:06:49;42.60;;;16.48;;
60352;SDS011;46196;52.970;6.954;2023-02-23T10:12:06;43.78;;;16.85;;
60352;SDS011;46196;52.970;6.954;2023-02-23T10:20:00;47.83;;;16.73;;
60352;SDS011;46196;52.970;6.954;2023-02-23T10:22:28;52.38;;;16.45;;
60352;SDS011;46196;52.970;6.954;2023-02-23T10:24:55;45.42;;;17.00;;
60352;SDS011;46196;52.970;6.954;2023-02-23T10:27:28;50.72;;;16.45;;
60352;SDS011;46196;52.970;6.954;2023-02-23T10:29:55;52.13;;;15.80;;
60352;SDS011;46196;52.970;6.954;2023-02-23T10:34:51;42.80;;;16.17;;
60352;SDS011;46196;52.970;6.954;2023-02-23T10:39:44;41.03;;;15.60;;
60352;SDS011;46196;52.970;6.954;2023-02-23T10:42:14;36.25;;;13.43;;
60352;SDS011;46196;52.970;6.954;2023-02-23T10:44:42;48.33;;;16.50;;
60352;SDS011;46196;52.970;6.954;2023-02-23T10:47:16;42.40;;;17.35;;
60352;SDS011;46196;52.970;6.954;2023-02-23T10:49:47;54.45;;;18.33;;
60352;SDS011;46196;52.970;6.954;2023-02-23T10:52:21;57.15;;;18.15;;
60352;SDS011;46196;52.970;6.954;2023-02-23T10:54:51;47.03;;;16.52;;
60352;SDS011;46196;52.970;6.954;2023-02-23T10:57:22;40.27;;;13.63;;
60352;SDS011;46196;52.970;6.954;2023-02-23T11:02:46;45.80;;;16.83;;
60352;SDS011;46196;52.970;6.954;2023-02-23T11:10:38;51.83;;;16.60;;
60352;SDS011;46196;52.970;6.954;2023-02-23T11:13:05;48.92;;;15.95;;
60352;SDS011;46196;52.970;6.954;2023-02-23T11:15:32;48.67;;;17.15;;
60352;SDS011;46196;52.970;6.954;2023-02-23T11:17:59;55.75;;;18.48;;
60352;SDS011;46196;52.970;6.954;2023-02-23T11:22:55;51.47;;;19.48;;
60352;SDS011;46196;52.970;6.954;2023-02-23T11:25:26;47.22;;;16.80;;
60352;SDS011;46196;52.970;6.954;2023-02-23T11:27:53;55.72;;;18.98;;
60352;SDS011;46196;52.970;6.954;2023-02-23T11:30:21;44.03;;;15.20;;
60352;SDS011;46196;52.970;6.954;2023-02-23T11:32:53;45.38;;;17.17;;
60352;SDS011;46196;52.970;6.954;2023-02-23T11:37:47;54.42;;;19.10;;
60352;SDS011;46196;52.970;6.954;2023-02-23T11:43:06;55.70;;;17.92;;
60352;SDS011;46196;52.970;6.954;2023-02-23T11:45:37;50.17;;;16.67;;
60352;SDS011;46196;52.970;6.954;2023-02-23T11:48:03;57.25;;;18.20;;
60352;SDS011;46196;52.970;6.954;2023-02-23T11:50:34;54.20;;;16.67;;
60352;SDS011;46196;52.970;6.954;2023-02-23T11:53:04;62.83;;;19.63;;
60352;SDS011;46196;52.970;6.954;2023-02-23T11:55:31;55.13;;;17.92;;
60352;SDS011;46196;52.970;6.954;2023-02-23T12:00:40;57.38;;;19.10;;
60352;SDS011;46196;52.970;6.954;2023-02-23T12:03:06;59.47;;;19.35;;
60352;SDS011;46196;52.970;6.954;2023-02-23T12:05:32;52.80;;;17.55;;
60352;SDS011;46196;52.970;6.954;2023-02-23T12:08:05;55.55;;;18.88;;
60352;SDS011;46196;52.970;6.954;2023-02-23T12:13:02;60.33;;;18.65;;
60352;SDS011;46196;52.970;6.954;2023-02-23T12:18:27;54.13;;;19.65;;
60352;SDS011;46196;52.970;6.954;2023-02-23T12:20:47;52.90;;;17.40;;
60352;SDS011;46196;52.970;6.954;2023-02-23T12:23:18;68.40;;;20.02;;
60352;SDS011;46196;52.970;6.954;2023-02-23T12:26:18;56.63;;;16.83;;
60352;SDS011;46196;52.970;6.954;2023-02-23T12:28:39;47.63;;;14.52;;
60352;SDS011;46196;52.970;6.954;2023-02-23T12:31:17;69.88;;;18.90;;
60352;SDS011;46196;52.970;6.954;2023-02-23T12:33:48;61.42;;;18.58;;
60352;SDS011;46196;52.970;6.954;2023-02-23T12:38:55;72.00;;;20.08;;
60352;SDS011;46196;52.970;6.954;2023-02-23T12:41:31;77.38;;;19.10;;
60352;SDS011;46196;52.970;6.954;2023-02-23T12:43:59;75.35;;;19.88;;
60352;SDS011;46196;52.970;6.954;2023-02-23T12:46:30;69.40;;;18.38;;
60352;SDS011;46196;52.970;6.954;2023-02-23T12:49:02;75.75;;;19.88;;
60352;SDS011;46196;52.970;6.954;2023-02-23T12:51:33;79.53;;;18.60;;
60352;SDS011;46196;52.970;6.954;2023-02-23T12:54:01;72.57;;;18.80;;
60352;SDS011;46196;52.970;6.954;2023-02-23T12:56:38;69.07;;;17.40;;
60352;SDS011;46196;52.970;6.954;2023-02-23T13:17:16;55.38;;;17.23;;
60352;SDS011;46196;52.970;6.954;2023-02-23T13:19:50;62.58;;;17.35;;
60352;SDS011;46196;52.970;6.954;2023-02-23T13:24:49;60.80;;;17.05;;
60352;SDS011;46196;52.970;6.954;2023-02-23T13:27:18;64.28;;;19.25;;
60352;SDS011;46196;52.970;6.954;2023-02-23T13:29:46;50.58;;;15.95;;
60352;SDS011;46196;52.970;6.954;2023-02-23T13:32:15;64.40;;;18.13;;
60352;SDS011;46196;52.970;6.954;2023-02-23T13:34:43;59.97;;;17.70;;
60352;SDS011;46196;52.970;6.954;2023-02-23T13:37:11;58.38;;;16.90;;
60352;SDS011;46196;52.970;6.954;2023-02-23T13:42:44;66.22;;;17.50;;
60352;SDS011;46196;52.970;6.954;2023-02-23T13:45:27;65.18;;;18.33;;
60352;SDS011;46196;52.970;6.954;2023-02-23T13:50:39;63.05;;;17.75;;
60352;SDS011;46196;52.970;6.954;2023-02-23T13:53:26;64.13;;;16.50;;
60352;SDS011;46196;52.970;6.954;2023-02-23T13:55:52;59.65;;;16.55;;
60352;SDS011;46196;52.970;6.954;2023-02-23T13:58:25;77.18;;;18.45;;
60352;SDS011;46196;52.970;6.954;2023-02-23T14:00:53;59.73;;;16.83;;
60352;SDS011;46196;52.970;6.954;2023-02-23T14:03:28;67.65;;;17.45;;
60352;SDS011;46196;52.970;6.954;2023-02-23T14:05:55;70.93;;;16.45;;
60352;SDS011;46196;52.970;6.954;2023-02-23T14:08:27;65.65;;;16.98;;
60352;SDS011;46196;52.970;6.954;2023-02-23T14:10:56;64.13;;;16.40;;
60352;SDS011;46196;52.970;6.954;2023-02-23T14:24:13;72.85;;;18.23;;
60352;SDS011;46196;52.970;6.954;2023-02-23T14:29:30;71.72;;;16.92;;
60352;SDS011;46196;52.970;6.954;2023-02-23T14:37:13;25.88;;;6.18;;
60352;SDS011;46196;52.970;6.954;2023-02-23T14:39:39;23.00;;;5.40;;
60352;SDS011;46196;52.970;6.954;2023-02-23T14:42:06;27.98;;;6.28;;
60352;SDS011;46196;52.970;6.954;2023-02-23T14:44:36;25.40;;;5.93;;
60352;SDS011;46196;52.970;6.954;2023-02-23T14:49:43;23.92;;;4.70;;
60352;SDS011;46196;52.970;6.954;2023-02-23T14:52:43;24.77;;;5.40;;
60352;SDS011;46196;52.970;6.954;2023-02-23T14:57:33;30.88;;;6.07;;
60352;SDS011;46196;52.970;6.954;2023-02-23T15:00:00;27.80;;;6.20;;
60352;SDS011;46196;52.970;6.954;2023-02-23T15:02:29;39.53;;;7.95;;
60352;SDS011;46196;52.970;6.954;2023-02-23T15:04:55;28.10;;;5.25;;
60352;SDS011;46196;52.970;6.954;2023-02-23T15:07:37;25.60;;;5.55;;
60352;SDS011;46196;52.970;6.954;2023-02-23T15:10:48;31.17;;;6.45;;
60352;SDS011;46196;52.970;6.954;2023-02-23T15:12:54;31.48;;;6.03;;
60352;SDS011;46196;52.970;6.954;2023-02-23T15:15:21;33.75;;;5.65;;
60352;SDS011;46196;52.970;6.954;2023-02-23T15:17:49;24.50;;;4.97;;
60352;SDS011;46196;52.970;6.954;2023-02-23T15:20:17;28.75;;;5.03;;
60352;SDS011;46196;52.970;6.954;2023-02-23T15:22:49;29.45;;;5.20;;
60352;SDS011;46196;52.970;6.954;2023-02-23T15:25:21;19.95;;;4.90;;
60352;SDS011;46196;52.970;6.954;2023-02-23T15:27:52;22.48;;;5.20;;
60352;SDS011;46196;52.970;6.954;2023-02-23T15:32:46;28.05;;;4.75;;
60352;SDS011;46196;52.970;6.954;2023-02-23T15:35:12;30.15;;;5.53;;
60352;SDS011;46196;52.970;6.954;2023-02-23T15:37:39;32.72;;;5.90;;
60352;SDS011;46196;52.970;6.954;2023-02-23T15:40:11;31.40;;;6.47;;
60352;SDS011;46196;52.970;6.954;2023-02-23T15:42:42;34.13;;;5.85;;
60352;SDS011;46196;52.970;6.954;2023-02-23T15:45:12;30.48;;;5.93;;
60352;SDS011;46196;52.970;6.954;2023-02-23T15:50:07;30.30;;;6.13;;
60352;SDS011;46196;52.970;6.954;2023-02-23T15:52:33;28.88;;;5.05;;
60352;SDS011;46196;52.970;6.954;2023-02-23T15:57:31;31.67;;;6.30;;
60352;SDS011;46196;52.970;6.954;2023-02-23T15:59:59;26.40;;;5.25;;
60352;SDS011;46196;52.970;6.954;2023-02-23T16:02:25;28.90;;;5.70;;
60352;SDS011;46196;52.970;6.954;2023-02-23T16:04:51;26.27;;;6.32;;
60352;SDS011;46196;52.970;6.954;2023-02-23T16:12:28;28.08;;;5.30;;
60352;SDS011;46196;52.970;6.954;2023-02-23T16:14:57;18.40;;;4.22;;
60352;SDS011;46196;52.970;6.954;2023-02-23T16:17:28;23.30;;;4.45;;
60352;SDS011;46196;52.970;6.954;2023-02-23T16:20:09;21.02;;;4.95;;
60352;SDS011;46196;52.970;6.954;2023-02-23T16:22:38;19.17;;;4.47;;
60352;SDS011;46196;52.970;6.954;2023-02-23T16:25:07;24.42;;;4.75;;
60352;SDS011;46196;52.970;6.954;2023-02-23T16:27:33;28.90;;;5.23;;
60352;SDS011;46196;52.970;6.954;2023-02-23T16:32:37;20.55;;;4.85;;
60352;SDS011;46196;52.970;6.954;2023-02-23T16:35:16;19.73;;;4.87;;
60352;SDS011;46196;52.970;6.954;2023-02-23T16:40:21;20.35;;;4.20;;
60352;SDS011;46196;52.970;6.954;2023-02-23T16:42:47;25.25;;;4.40;;
60352;SDS011;46196;52.970;6.954;2023-02-23T16:45:14;20.88;;;5.05;;
60352;SDS011;46196;52.970;6.954;2023-02-23T16:47:45;18.08;;;4.07;;
60352;SDS011;46196;52.970;6.954;2023-02-23T16:50:21;22.92;;;4.63;;
60352;SDS011;46196;52.970;6.954;2023-02-23T16:52:49;29.52;;;5.47;;
60352;SDS011;46196;52.970;6.954;2023-02-23T16:55:16;21.30;;;5.35;;
60352;SDS011;46196;52.970;6.954;2023-02-23T16:57:44;15.70;;;4.25;;
60352;SDS011;46196;52.970;6.954;2023-02-23T17:00:11;25.17;;;4.93;;
60352;SDS011;46196;52.970;6.954;2023-02-23T17:02:45;22.23;;;5.22;;
60352;SDS011;46196;52.970;6.954;2023-02-23T17:05:13;21.35;;;5.07;;
60352;SDS011;46196;52.970;6.954;2023-02-23T17:07:43;18.52;;;4.30;;
60352;SDS011;46196;52.970;6.954;2023-02-23T17:10:13;17.13;;;5.20;;
60352;SDS011;46196;52.970;6.954;2023-02-23T17:12:47;25.08;;;4.97;;
60352;SDS011;46196;52.970;6.954;2023-02-23T17:15:14;22.38;;;4.57;;
60352;SDS011;46196;52.970;6.954;2023-02-23T17:17:42;21.20;;;4.45;;
60352;SDS011;46196;52.970;6.954;2023-02-23T17:20:08;15.30;;;3.10;;
60352;SDS011;46196;52.970;6.954;2023-02-23T17:22:39;19.42;;;4.57;;
60352;SDS011;46196;52.970;6.954;2023-02-23T17:25:06;23.05;;;4.10;;